Cloverdale, IN

3:17 AM EST on February 27, 2015 (GMT -0500)
GosportINWX | Change Station
CLOSE
Current Station
Personal Weather Station
Location: Gosport, IN
Elevation: 751 ft
Nearby Weather Stations

Elev 751 ft 39.30 °N, 86.70 °W | Updated 6 seconds ago

Partly Cloudy
Partly Cloudy
3.2 °F
Feels Like 3 °F
N
1.2
Wind Variable Wind from SE
Gusts 2.9 mph

Today
High -- | Low -- °F
--% Chance of Precip.
Yesterday
High -- | Low -- °F
Precip. -- in
7:23 AM 6:37 PM
Waxing Gibbous, 66% visible
Pressure 30.48 in
Visibility 3.0 miles
Clouds Mostly Cloudy 2600 ft
Overcast 5500 ft
Windchill 3 °F
Dew Point -7 °F
Humidity 60%
Rainfall 0.00 in
Snow Depth Not available.
UV 0 out of 12
Pollen .60 out of 12
Air Quality Not available.
Flu Activity Not available.
SPECI KHUF 270810Z 32005KT 3SM -SN BKN026 OVC055 M13/M16 A3048 RMK AO2 SNB01 P0000 T11281161 $

More Conditions Fewer Conditions

Pressure 30.48 in
Visibility 3.0 miles
Clouds Mostly Cloudy 2600 ft
Overcast 5500 ft
Windchill 3 °F
Dew Point -7 °F
Humidity 60%
Rainfall 0.00 in
Snow Depth Not available.
UV 0 out of 12
Pollen .60 out of 12
Air Quality Not available.
Flu Activity Not available.
SPECI KHUF 270810Z 32005KT 3SM -SN BKN026 OVC055 M13/M16 A3048 RMK AO2 SNB01 P0000 T11281161 $

More Conditions Fewer Conditions

10-Day Weather Forecast

Almanac

Astronomy

Feb. 27, 2015 Rise Set
Actual Time
Civil Twilight
Nautical Twilight
Astronomical Twilight
Moon
Length of Visible Light
Length of Day
Tomorrow will be .
, % of the Moon is Illuminated

Today's Extremes

State Highs State Lows

Community

WunderPhotos

Upload Photos

1,800,649 photos uploaded!

WunderBlogs® & News

Nearby

Air Quality

  Air Quality AQ Index Pollutant
Not available.

Snow Depth

Station Depth Elevation

Earthquake Activity

City Distance Mag. Time & Date
Minimum magnitude displayed is 2.5.

Coastal Water Temperatures

Place Temperature

Nearby Weather Stations